0TS0 weather

CLOSED Flower Mound Airport
Flower Mound, Texas, United States

Public forecast

Using degrees Fahrenheit for public forecast. Weather courtesy of forecast.io.

Closest aviation weather report (METAR) to Flower Mound Airport

Closest report is Dallas Fort Worth International Airport, 8.7 nm (16.1 km) SSE. Retrieved 2020/04/09 12:53 UTC (57 minutes ago):

KDFW 091253Z 34005KT 10SM BKN220 BKN300 18/12 A2989 RMK AO2 SLP112 VIRGA SW-NW T01830117

Closest aviation forecast (TAF) to Flower Mound Airport

Closest forecast is Dallas Fort Worth International Airport, 8.7 nm (16.1 km) SSE. Retrieved 2020/04/09 12:27 UTC (1 hour ago):

TAF KDFW 091125Z 0912/1018 04012KT P6SM BKN300 FM092300 02007KT P6SM OVC050